Time;durP1;ratioP1;P1;durP2;ratioP2;P2;SDS_P1;SDS_P2;PMS_P1;PMS_P2;Temp;Humidity;BMP_temperature;BMP_pressure;BME280_temperature;BME280_humidity;BME280_pressure;Samples;Min_cycle;Max_cycle;Signal;HPM_P1;HPM_P2
2021/01/13 00:03:14;;;;;;;4.87;4.50;;;5.40;46.30;;;;;;10349018;28;20229;-73
2021/01/13 00:08:17;;;;;;;5.23;4.83;;;5.40;46.50;;;;;;10371886;28;20231;-73
2021/01/13 00:13:20;;;;;;;5.27;4.87;;;5.30;46.40;;;;;;10373945;28;20240;-73
2021/01/13 00:18:22;;;;;;;4.87;4.47;;;5.30;46.50;;;;;;10372029;28;20230;-73
2021/01/13 00:23:24;;;;;;;5.00;4.60;;;5.20;46.50;;;;;;10365719;28;20232;-73
2021/01/13 00:28:27;;;;;;;5.20;4.80;;;5.20;46.70;;;;;;10369365;28;20222;-73
2021/01/13 00:33:30;;;;;;;5.67;4.83;;;5.20;46.80;;;;;;10367941;28;20250;-73
2021/01/13 00:38:32;;;;;;;4.80;4.50;;;5.20;46.80;;;;;;10369966;28;20238;-73
2021/01/13 00:43:35;;;;;;;5.60;4.80;;;5.20;46.80;;;;;;10353471;28;20617;-73
2021/01/13 00:48:37;;;;;;;5.53;5.13;;;5.20;46.70;;;;;;10355307;28;20233;-73
2021/01/13 00:53:40;;;;;;;5.20;4.80;;;5.20;46.60;;;;;;10353225;28;20609;-73
2021/01/13 00:58:43;;;;;;;5.30;4.90;;;5.20;46.70;;;;;;10354711;28;20226;-73
2021/01/13 01:03:45;;;;;;;5.33;4.83;;;5.20;46.70;;;;;;10357571;28;20285;-73
2021/01/13 01:08:47;;;;;;;5.23;4.73;;;5.20;46.70;;;;;;10351232;28;20476;-73
2021/01/13 01:13:51;;;;;;;5.53;5.03;;;5.20;46.80;;;;;;10354342;28;20694;-73
2021/01/13 01:18:54;;;;;;;5.83;5.33;;;5.20;46.70;;;;;;10359161;28;20233;-73
2021/01/13 01:23:57;;;;;;;6.47;5.50;;;5.20;47.40;;;;;;10362087;28;20226;-73
2021/01/13 01:29:00;;;;;;;5.87;5.37;;;5.20;46.50;;;;;;10360046;28;20717;-73
2021/01/13 01:34:02;;;;;;;5.63;5.13;;;5.20;46.50;;;;;;10355825;28;20226;-72
2021/01/13 01:39:05;;;;;;;5.83;5.30;;;5.20;46.50;;;;;;10359297;28;20231;-72
2021/01/13 01:44:08;;;;;;;7.50;5.10;;;5.20;46.50;;;;;;10354365;28;20322;-72
2021/01/13 01:49:13;;;;;;;5.50;5.07;;;5.30;46.50;;;;;;10360577;28;20717;-73
2021/01/13 01:54:18;;;;;;;5.83;5.23;;;5.20;46.30;;;;;;10364500;28;20236;-73
2021/01/13 01:59:35;;;;;;;5.93;5.33;;;5.30;46.40;;;;;;10355917;28;20233;-73
2021/01/13 02:04:43;;;;;;;5.30;4.90;;;5.20;46.30;;;;;;10358350;28;20223;-73
2021/01/13 02:09:45;;;;;;;5.63;5.10;;;5.30;46.40;;;;;;10357472;28;20318;-72
2021/01/13 02:14:48;;;;;;;6.10;5.23;;;5.30;46.30;;;;;;10357804;28;20226;-73
2021/01/13 02:20:14;;;;;;;5.97;5.47;;;5.30;46.40;;;;;;10358838;28;20235;-73
2021/01/13 02:26:05;;;;;;;5.43;4.93;;;5.30;46.20;;;;;;10347832;28;20227;-73
2021/01/13 02:31:33;;;;;;;5.97;5.47;;;5.30;46.20;;;;;;10355824;28;20314;-72
2021/01/13 02:36:59;;;;;;;5.20;4.80;;;5.30;46.00;;;;;;10355430;28;20268;-73
2021/01/13 02:42:02;;;;;;;5.60;5.10;;;5.30;46.10;;;;;;10353721;28;20235;-73
2021/01/13 02:47:08;;;;;;;7.03;5.70;;;5.20;46.20;;;;;;10352841;28;20226;-73
2021/01/13 02:52:18;;;;;;;5.83;5.07;;;5.20;46.20;;;;;;10355942;28;20468;-72
2021/01/13 02:57:26;;;;;;;5.83;5.30;;;5.20;46.20;;;;;;10353027;28;20593;-73
2021/01/13 03:02:36;;;;;;;7.97;5.30;;;5.20;46.10;;;;;;10368543;28;20678;-73
2021/01/13 03:07:39;;;;;;;6.90;5.23;;;5.20;46.30;;;;;;10374252;28;20234;-72
2021/01/13 03:12:42;;;;;;;5.93;5.10;;;5.20;46.30;;;;;;10361643;28;20226;-72
2021/01/13 03:18:04;;;;;;;5.93;5.43;;;5.10;46.20;;;;;;10361736;28;20214;-72
2021/01/13 03:23:13;;;;;;;6.20;5.60;;;5.10;46.20;;;;;;10352107;28;20781;-72
2021/01/13 03:28:18;;;;;;;6.07;5.30;;;5.20;46.30;;;;;;10365533;28;20234;-72
2021/01/13 03:34:00;;;;;;;6.87;5.67;;;5.20;46.20;;;;;;10352176;28;20313;-72
2021/01/13 03:39:06;;;;;;;7.80;5.90;;;5.20;46.00;;;;;;10354946;28;20244;-73
2021/01/13 03:44:09;;;;;;;6.87;6.00;;;5.20;46.00;;;;;;10355800;28;20226;-72
2021/01/13 03:49:16;;;;;;;6.53;5.90;;;5.10;45.90;;;;;;10368171;28;20727;-72
2021/01/13 03:54:24;;;;;;;6.20;5.60;;;5.10;46.00;;;;;;10364546;28;20230;-72
2021/01/13 03:59:51;;;;;;;7.27;6.00;;;5.10;46.00;;;;;;10356779;28;20230;-72
2021/01/13 04:05:15;;;;;;;7.10;5.90;;;5.10;46.00;;;;;;10366272;28;20233;-72
2021/01/13 04:10:18;;;;;;;5.87;5.33;;;5.10;46.10;;;;;;10321893;28;20226;-72
2021/01/13 04:15:20;;;;;;;8.17;6.50;;;5.10;46.30;;;;;;10319529;28;20235;-72
2021/01/13 04:20:24;;;;;;;7.40;6.07;;;5.10;46.10;;;;;;10323883;28;20241;-72
2021/01/13 04:25:27;;;;;;;6.40;5.73;;;5.10;46.00;;;;;;10321165;28;20237;-72
2021/01/13 04:30:30;;;;;;;7.17;6.50;;;5.10;46.00;;;;;;10323329;28;20231;-72
2021/01/13 04:35:33;;;;;;;7.83;6.53;;;5.20;45.90;;;;;;10321279;28;20301;-72
2021/01/13 04:40:38;;;;;;;7.10;6.37;;;5.10;45.70;;;;;;10329891;28;20233;-72
2021/01/13 04:45:42;;;;;;;10.23;6.40;;;5.10;45.60;;;;;;10361368;28;20250;-72
2021/01/13 04:50:47;;;;;;;7.13;6.03;;;5.10;45.50;;;;;;10358989;28;20225;-72
2021/01/13 04:55:51;;;;;;;6.87;6.20;;;5.10;45.40;;;;;;10360526;28;20718;-72
2021/01/13 05:01:41;;;;;;;7.70;6.33;;;5.00;45.40;;;;;;10356813;28;20240;-72
2021/01/13 05:06:49;;;;;;;7.20;6.03;;;5.00;45.40;;;;;;10341415;28;20222;-72
2021/01/13 05:11:51;;;;;;;8.87;7.80;;;5.00;45.30;;;;;;10360387;28;20230;-72
2021/01/13 05:17:02;;;;;;;9.83;7.03;;;5.00;45.40;;;;;;10360427;28;20621;-72
2021/01/13 05:22:12;;;;;;;7.57;5.93;;;5.00;45.30;;;;;;10350490;28;20319;-72
2021/01/13 05:27:41;;;;;;;7.37;6.47;;;5.00;45.40;;;;;;10359659;28;20361;-72
2021/01/13 05:32:43;;;;;;;6.60;5.70;;;4.90;45.20;;;;;;10358378;28;20241;-72
2021/01/13 05:37:49;;;;;;;6.77;6.07;;;4.90;45.40;;;;;;10366956;28;20569;-72
2021/01/13 05:42:57;;;;;;;7.17;5.80;;;4.90;45.30;;;;;;10358386;28;20230;-72
2021/01/13 05:48:02;;;;;;;7.33;5.83;;;4.90;45.30;;;;;;10348518;28;20313;-72
2021/01/13 05:53:07;;;;;;;6.33;5.73;;;4.90;45.20;;;;;;10358141;28;20588;-72
2021/01/13 05:58:09;;;;;;;6.70;5.83;;;4.80;45.20;;;;;;10361896;28;20225;-72
2021/01/13 06:03:12;;;;;;;9.83;6.57;;;4.80;45.30;;;;;;10357528;28;20592;-72
2021/01/13 06:08:16;;;;;;;7.33;5.83;;;4.80;45.30;;;;;;10356528;28;20606;-72
2021/01/13 06:13:22;;;;;;;8.00;6.07;;;4.80;45.30;;;;;;10373442;28;20242;-72
2021/01/13 06:18:27;;;;;;;9.07;6.03;;;4.70;45.30;;;;;;10381207;28;20253;-72
2021/01/13 06:23:30;;;;;;;7.37;5.63;;;4.60;45.40;;;;;;10356750;28;20241;-72
2021/01/13 06:28:48;;;;;;;6.73;5.23;;;4.50;45.40;;;;;;10358280;28;20226;-72
2021/01/13 06:34:10;;;;;;;8.77;5.60;;;4.50;45.40;;;;;;10367398;28;20244;-73
2021/01/13 06:39:16;;;;;;;6.27;4.67;;;4.40;45.30;;;;;;10379648;28;20230;-72
2021/01/13 06:44:18;;;;;;;5.90;4.47;;;4.40;45.40;;;;;;10371069;28;20233;-75
2021/01/13 06:49:22;;;;;;;5.33;4.47;;;4.30;45.40;;;;;;10364323;28;20230;-75
2021/01/13 06:54:27;;;;;;;7.23;4.73;;;4.30;45.40;;;;;;10356641;28;20229;-74
2021/01/13 06:59:38;;;;;;;6.30;4.80;;;4.30;45.40;;;;;;10355071;28;20229;-75
2021/01/13 07:04:46;;;;;;;5.53;4.23;;;4.30;45.20;;;;;;10357160;28;20223;-75
2021/01/13 07:09:50;;;;;;;5.77;4.50;;;4.20;45.30;;;;;;10349669;28;20235;-75
2021/01/13 07:14:55;;;;;;;6.13;4.60;;;4.20;45.40;;;;;;10358233;28;20237;-75
2021/01/13 07:20:05;;;;;;;4.67;3.97;;;4.20;45.40;;;;;;10371130;28;20226;-75
2021/01/13 07:25:13;;;;;;;6.60;3.97;;;4.30;45.40;;;;;;10376219;28;20728;-75
2021/01/13 07:30:19;;;;;;;6.43;3.57;;;4.30;45.10;;;;;;10382654;28;20234;-75
2021/01/13 07:35:29;;;;;;;5.63;3.77;;;4.30;45.10;;;;;;10377475;28;20237;-75
2021/01/13 07:40:36;;;;;;;5.67;3.90;;;4.30;45.00;;;;;;10376099;28;20745;-75
2021/01/13 07:45:41;;;;;;;5.43;3.57;;;4.30;44.90;;;;;;10380043;28;20283;-75
2021/01/13 07:50:45;;;;;;;8.47;4.23;;;4.30;45.00;;;;;;10375641;28;20226;-75
2021/01/13 07:55:57;;;;;;;5.73;3.70;;;4.30;45.10;;;;;;10384877;28;20229;-75
2021/01/13 08:01:36;;;;;;;5.43;3.50;;;4.30;44.70;;;;;;10378160;28;20329;-72
2021/01/13 08:06:47;;;;;;;5.03;3.70;;;4.30;44.70;;;;;;10370547;28;20245;-72
2021/01/13 08:12:36;;;;;;;6.53;3.80;;;4.30;44.70;;;;;;10377661;28;20242;-73
2021/01/13 08:17:46;;;;;;;5.20;4.00;;;4.40;45.00;;;;;;10375759;28;20301;-73
2021/01/13 08:22:59;;;;;;;5.10;4.00;;;4.40;45.00;;;;;;10370191;28;20862;-73
2021/01/13 08:28:03;;;;;;;5.57;3.93;;;4.40;44.70;;;;;;10380988;28;20313;-73
2021/01/13 08:33:09;;;;;;;5.30;3.83;;;4.40;45.00;;;;;;10381269;28;20229;-73
2021/01/13 08:38:12;;;;;;;6.30;3.87;;;4.50;44.90;;;;;;10380625;28;20236;-73
2021/01/13 08:43:17;;;;;;;7.50;4.23;;;4.50;44.90;;;;;;10377355;28;20447;-73
2021/01/13 08:48:21;;;;;;;6.00;4.63;;;4.50;44.60;;;;;;10368949;28;20229;-73
2021/01/13 08:53:24;;;;;;;6.47;4.37;;;4.50;44.70;;;;;;10371482;28;20226;-73
2021/01/13 08:58:29;;;;;;;6.87;4.37;;;4.40;44.70;;;;;;10376064;28;20228;-74
2021/01/13 09:03:36;;;;;;;11.53;5.50;;;4.40;44.80;;;;;;10375788;28;20671;-74
2021/01/13 09:08:39;;;;;;;6.47;4.87;;;4.40;44.80;;;;;;10377585;28;20755;-73
2021/01/13 09:13:44;;;;;;;8.27;4.60;;;4.50;45.00;;;;;;10365631;28;20352;-72
2021/01/13 09:18:53;;;;;;;5.93;4.40;;;4.50;45.00;;;;;;10380600;28;20256;-73
2021/01/13 09:23:56;;;;;;;6.13;4.80;;;4.60;44.80;;;;;;10383638;28;20416;-73
2021/01/13 09:29:05;;;;;;;5.90;4.50;;;4.60;44.70;;;;;;10374093;28;20237;-74
2021/01/13 09:34:08;;;;;;;7.97;5.30;;;4.60;44.60;;;;;;10380246;28;20223;-73
2021/01/13 09:39:13;;;;;;;5.93;4.97;;;4.70;44.90;;;;;;10370643;28;20218;-73
2021/01/13 09:44:23;;;;;;;5.93;5.37;;;4.70;44.80;;;;;;10374404;28;20222;-73
2021/01/13 09:49:25;;;;;;;6.63;5.00;;;4.70;44.50;;;;;;10381561;28;20229;-73
2021/01/13 09:54:29;;;;;;;6.90;6.00;;;4.70;44.80;;;;;;10378774;28;20971;-72
2021/01/13 09:59:34;;;;;;;8.10;5.63;;;4.80;44.90;;;;;;10371943;28;20233;-70
2021/01/13 10:04:37;;;;;;;6.87;4.83;;;4.80;44.70;;;;;;10379692;28;20221;-70
2021/01/13 10:09:43;;;;;;;7.37;5.63;;;4.80;44.80;;;;;;10375927;28;20698;-71
2021/01/13 10:14:51;;;;;;;7.63;5.13;;;4.70;44.50;;;;;;10376974;28;20233;-70
2021/01/13 10:19:54;;;;;;;7.83;5.20;;;4.60;44.70;;;;;;10360101;28;20230;-71
2021/01/13 10:24:57;;;;;;;7.57;5.30;;;4.60;45.10;;;;;;10360634;28;20310;-71
2021/01/13 10:30:01;;;;;;;7.40;5.37;;;4.70;45.50;;;;;;10370136;28;20263;-72
2021/01/13 10:35:04;;;;;;;7.23;5.53;;;4.70;45.40;;;;;;10371823;28;20218;-71
2021/01/13 10:40:08;;;;;;;8.67;6.10;;;4.80;45.20;;;;;;10378127;28;20260;-71
2021/01/13 10:45:13;;;;;;;11.73;6.37;;;4.90;45.20;;;;;;10377233;28;20230;-70
2021/01/13 10:50:19;;;;;;;10.23;5.67;;;4.90;45.00;;;;;;10370636;28;20290;-71
2021/01/13 10:55:23;;;;;;;7.50;5.80;;;5.00;45.20;;;;;;10382299;28;20236;-71
2021/01/13 11:00:28;;;;;;;9.27;5.60;;;5.10;45.40;;;;;;10372296;28;20230;-71
2021/01/13 11:05:34;;;;;;;7.97;5.50;;;5.20;45.30;;;;;;10370358;28;20246;-71
2021/01/13 11:10:37;;;;;;;4.97;4.47;;;5.30;45.30;;;;;;10374612;28;20234;-71
2021/01/13 11:15:40;;;;;;;5.27;4.53;;;5.40;45.30;;;;;;10367346;28;20729;-71
2021/01/13 11:20:43;;;;;;;7.30;4.50;;;5.50;45.00;;;;;;10357438;28;20249;-71
2021/01/13 11:25:46;;;;;;;7.13;5.03;;;5.70;44.70;;;;;;10382373;28;20214;-71
2021/01/13 11:30:50;;;;;;;5.50;4.03;;;5.70;44.60;;;;;;10366749;28;20233;-71
2021/01/13 11:35:53;;;;;;;6.73;4.07;;;5.80;44.20;;;;;;10370529;28;20766;-71
2021/01/13 11:41:10;;;;;;;5.07;3.93;;;5.80;44.10;;;;;;10364950;28;20226;-71
2021/01/13 11:46:16;;;;;;;6.57;4.10;;;5.90;43.80;;;;;;10318130;28;20292;-71
2021/01/13 11:51:23;;;;;;;5.47;4.10;;;5.90;44.00;;;;;;10356356;28;20246;-71
2021/01/13 11:56:29;;;;;;;4.30;3.70;;;6.00;43.90;;;;;;10350068;28;20226;-71
2021/01/13 12:01:36;;;;;;;4.77;2.80;;;6.10;43.60;;;;;;10354879;28;20257;-71
2021/01/13 12:06:38;;;;;;;4.80;3.10;;;6.20;43.70;;;;;;10353968;28;20257;-71
2021/01/13 12:11:40;;;;;;;3.30;2.37;;;6.30;43.80;;;;;;10356735;28;20222;-71
2021/01/13 12:16:43;;;;;;;5.17;3.27;;;6.30;43.80;;;;;;10382832;28;20240;-71
2021/01/13 12:21:46;;;;;;;2.73;2.50;;;6.40;43.10;;;;;;10385621;28;20291;-71
2021/01/13 12:26:48;;;;;;;4.50;2.50;;;6.40;42.50;;;;;;10383048;28;20224;-71
2021/01/13 12:31:51;;;;;;;4.30;2.70;;;6.40;42.80;;;;;;10367259;28;20230;-71
2021/01/13 12:36:57;;;;;;;6.30;2.97;;;6.50;43.00;;;;;;10361158;28;20781;-71
2021/01/13 12:42:01;;;;;;;5.43;2.33;;;6.50;42.30;;;;;;10359388;28;20719;-70
2021/01/13 12:47:08;;;;;;;5.10;2.60;;;6.40;42.20;;;;;;10356407;28;20230;-70
2021/01/13 12:52:10;;;;;;;3.97;2.03;;;6.40;42.50;;;;;;10344422;28;20707;-71
2021/01/13 12:57:13;;;;;;;4.30;2.47;;;6.50;42.80;;;;;;10351444;28;20238;-72
2021/01/13 13:02:16;;;;;;;3.27;2.40;;;6.50;42.60;;;;;;10362626;28;20257;-71
2021/01/13 13:07:19;;;;;;;4.40;2.30;;;6.60;42.30;;;;;;10354982;28;20222;-71
2021/01/13 13:12:21;;;;;;;3.30;2.40;;;6.60;42.30;;;;;;10353136;28;20235;-71
2021/01/13 13:17:25;;;;;;;5.50;2.27;;;6.60;42.20;;;;;;10358823;28;20236;-72
2021/01/13 13:22:27;;;;;;;3.53;2.17;;;6.50;41.80;;;;;;10353142;28;20233;-72
2021/01/13 13:27:29;;;;;;;3.33;2.20;;;6.50;42.20;;;;;;10363254;28;20233;-72
2021/01/13 13:32:32;;;;;;;2.53;2.10;;;6.50;42.10;;;;;;10376728;28;20237;-72
2021/01/13 13:37:35;;;;;;;3.50;2.90;;;6.50;41.80;;;;;;10360089;28;20219;-72
2021/01/13 13:42:37;;;;;;;2.23;1.80;;;6.40;42.10;;;;;;10364380;28;20231;-72
2021/01/13 13:47:40;;;;;;;3.63;2.30;;;6.40;42.10;;;;;;10371421;28;20302;-73
2021/01/13 13:52:43;;;;;;;5.57;2.07;;;6.40;41.80;;;;;;10361570;28;20703;-73
2021/01/13 13:57:45;;;;;;;4.00;2.10;;;6.40;42.30;;;;;;10353805;28;20223;-72
2021/01/13 14:02:48;;;;;;;2.83;1.90;;;6.30;42.20;;;;;;10355772;28;20594;-72
2021/01/13 14:07:50;;;;;;;2.83;1.97;;;6.20;42.30;;;;;;10370091;28;20223;-73
2021/01/13 14:12:53;;;;;;;3.13;1.90;;;6.20;42.00;;;;;;10352622;28;20235;-72
2021/01/13 14:17:56;;;;;;;3.23;2.30;;;6.10;42.30;;;;;;10354154;28;20607;-72
2021/01/13 14:22:58;;;;;;;4.57;2.00;;;6.00;42.10;;;;;;10344814;28;20600;-73
2021/01/13 14:28:01;;;;;;;4.40;1.77;;;6.00;42.40;;;;;;10343480;28;20236;-73
2021/01/13 14:33:04;;;;;;;2.63;1.93;;;6.00;42.50;;;;;;10347410;28;20227;-72
2021/01/13 14:38:06;;;;;;;4.17;1.90;;;6.00;42.40;;;;;;10359120;28;20296;-72
2021/01/13 14:43:08;;;;;;;4.53;2.30;;;6.00;42.50;;;;;;10350866;28;20235;-73
2021/01/13 14:48:12;;;;;;;2.13;1.90;;;6.00;42.30;;;;;;10355538;28;20662;-72
2021/01/13 14:53:14;;;;;;;2.73;2.50;;;6.00;42.10;;;;;;10352493;28;20234;-73
2021/01/13 14:58:16;;;;;;;3.40;2.20;;;6.10;42.40;;;;;;10356146;28;20237;-73
2021/01/13 15:03:20;;;;;;;5.37;2.77;;;6.10;42.10;;;;;;10351618;28;20611;-73
2021/01/13 15:08:24;;;;;;;3.10;2.27;;;6.10;42.10;;;;;;10350546;28;20300;-73
2021/01/13 15:13:26;;;;;;;3.90;2.10;;;6.10;42.20;;;;;;10351487;28;20362;-73
2021/01/13 15:18:29;;;;;;;3.80;2.30;;;6.10;42.30;;;;;;10350277;28;20230;-73
2021/01/13 15:23:31;;;;;;;3.50;2.33;;;6.00;42.00;;;;;;10357233;28;20232;-73
2021/01/13 15:28:33;;;;;;;3.40;2.60;;;6.00;42.20;;;;;;10360026;28;20225;-73
2021/01/13 15:33:37;;;;;;;2.90;2.30;;;6.00;42.40;;;;;;10357563;28;20564;-73
2021/01/13 15:38:40;;;;;;;7.83;2.77;;;5.90;42.30;;;;;;10373508;28;20275;-73
2021/01/13 15:43:42;;;;;;;3.33;2.47;;;5.90;42.40;;;;;;10381729;28;20242;-73
2021/01/13 15:48:45;;;;;;;3.03;2.53;;;5.90;42.30;;;;;;10365417;28;20232;-73
2021/01/13 15:53:48;;;;;;;3.83;2.70;;;5.80;42.30;;;;;;10360249;28;20230;-73
2021/01/13 15:58:53;;;;;;;4.40;3.00;;;5.80;42.40;;;;;;10353872;28;20234;-73
2021/01/13 16:03:56;;;;;;;2.87;2.53;;;5.80;42.40;;;;;;10367159;28;20265;-73
2021/01/13 16:08:59;;;;;;;4.63;2.93;;;5.80;42.40;;;;;;10346047;28;20280;-73
2021/01/13 16:14:03;;;;;;;4.87;3.00;;;5.90;42.40;;;;;;10331019;28;20229;-72
2021/01/13 16:19:07;;;;;;;3.10;2.80;;;5.90;42.20;;;;;;10349398;28;20607;-72
2021/01/13 16:24:10;;;;;;;5.33;2.90;;;5.90;42.10;;;;;;10347031;28;21104;-73
2021/01/13 16:29:13;;;;;;;4.73;3.03;;;5.90;42.20;;;;;;10355454;28;20227;-73
2021/01/13 16:34:19;;;;;;;4.47;3.40;;;5.90;42.20;;;;;;10373135;28;20239;-73
2021/01/13 16:39:41;;;;;;;9.50;4.53;;;5.80;41.80;;;;;;10383926;28;20237;-73
2021/01/13 16:44:44;;;;;;;5.30;3.17;;;5.80;42.10;;;;;;10356586;28;20310;-73
2021/01/13 16:49:47;;;;;;;4.03;3.53;;;5.70;42.20;;;;;;10362031;28;20222;-72
2021/01/13 16:54:49;;;;;;;3.27;2.97;;;5.70;42.10;;;;;;10358726;28;20317;-73
2021/01/13 17:00:06;;;;;;;5.70;5.10;;;5.60;42.20;;;;;;10362776;28;20253;-73
2021/01/13 17:05:12;;;;;;;4.53;3.43;;;5.50;41.50;;;;;;10364247;28;20229;-73
2021/01/13 17:10:17;;;;;;;3.33;2.60;;;5.50;41.80;;;;;;10352219;28;20668;-73
2021/01/13 17:15:20;;;;;;;3.67;2.73;;;5.50;41.90;;;;;;10361524;28;20230;-73
2021/01/13 17:20:23;;;;;;;3.90;2.80;;;5.40;41.80;;;;;;10360683;28;20242;-73
2021/01/13 17:25:28;;;;;;;4.63;3.07;;;5.40;42.00;;;;;;10361505;28;20237;-73
2021/01/13 17:30:31;;;;;;;3.50;3.13;;;5.30;42.00;;;;;;10369635;28;20714;-73
2021/01/13 17:35:35;;;;;;;4.63;3.13;;;5.30;42.00;;;;;;10361336;28;20226;-73
2021/01/13 17:40:38;;;;;;;5.27;3.90;;;5.20;41.90;;;;;;10365287;28;20226;-72
2021/01/13 17:45:41;;;;;;;4.37;3.63;;;5.10;42.20;;;;;;10366787;28;20222;-73
2021/01/13 17:50:45;;;;;;;4.50;3.90;;;5.10;42.60;;;;;;10362816;28;20218;-72
2021/01/13 17:55:47;;;;;;;4.40;3.43;;;5.00;42.60;;;;;;10363038;28;20221;-72
2021/01/13 18:00:50;;;;;;;4.87;3.80;;;5.00;42.70;;;;;;10358124;28;20230;-72
2021/01/13 18:05:55;;;;;;;4.40;4.00;;;5.10;42.80;;;;;;10372745;28;20281;-72
2021/01/13 18:10:57;;;;;;;4.60;4.07;;;5.10;42.50;;;;;;10378663;28;20227;-73
2021/01/13 18:16:01;;;;;;;4.53;4.13;;;5.10;42.70;;;;;;10380842;28;20226;-72
2021/01/13 18:21:04;;;;;;;4.73;4.23;;;5.10;42.80;;;;;;10367310;28;20238;-72
2021/01/13 18:26:07;;;;;;;4.97;4.43;;;5.10;42.60;;;;;;10361177;28;20233;-72
2021/01/13 18:31:09;;;;;;;4.57;4.17;;;5.10;42.70;;;;;;10354902;28;20250;-72
2021/01/13 18:36:12;;;;;;;4.50;4.10;;;5.10;42.80;;;;;;10345782;28;20719;-72
2021/01/13 18:41:14;;;;;;;4.50;4.10;;;5.20;42.60;;;;;;10354865;28;20427;-72
2021/01/13 18:46:17;;;;;;;5.37;4.07;;;5.20;42.50;;;;;;10340504;28;20227;-72
2021/01/13 18:51:20;;;;;;;3.97;3.57;;;5.20;42.50;;;;;;10357037;28;20614;-72
2021/01/13 18:56:22;;;;;;;6.87;5.23;;;5.20;42.40;;;;;;10361178;28;20222;-72
2021/01/13 19:01:25;;;;;;;6.60;5.47;;;5.20;42.40;;;;;;10353016;28;20654;-72
2021/01/13 19:06:29;;;;;;;6.27;5.03;;;5.30;42.40;;;;;;10362787;28;20232;-73
2021/01/13 19:11:35;;;;;;;4.60;4.20;;;5.30;42.30;;;;;;10376898;28;20224;-72
2021/01/13 19:16:37;;;;;;;5.03;3.70;;;5.30;42.20;;;;;;10370663;28;20230;-73
2021/01/13 19:21:40;;;;;;;3.77;3.47;;;5.30;42.40;;;;;;10364495;28;20231;-73
2021/01/13 19:26:42;;;;;;;5.90;5.30;;;5.30;42.40;;;;;;10372622;28;20218;-73
2021/01/13 19:31:45;;;;;;;4.70;4.30;;;5.40;42.60;;;;;;10356706;28;20233;-72
2021/01/13 19:36:50;;;;;;;4.73;4.27;;;5.40;42.50;;;;;;10354045;28;20598;-72
2021/01/13 19:41:52;;;;;;;4.93;4.20;;;5.40;42.20;;;;;;10368191;28;20229;-73
2021/01/13 19:46:55;;;;;;;3.87;3.47;;;5.50;42.60;;;;;;10358786;28;20230;-72
2021/01/13 19:51:58;;;;;;;4.17;3.70;;;5.50;42.50;;;;;;10376522;28;20778;-72
2021/01/13 19:57:00;;;;;;;3.87;3.57;;;5.60;42.60;;;;;;10363392;28;20214;-72
2021/01/13 20:02:16;;;;;;;4.17;3.77;;;5.60;42.90;;;;;;10361500;28;20225;-72
2021/01/13 20:07:19;;;;;;;4.23;3.83;;;5.60;42.90;;;;;;10358823;28;20226;-72
2021/01/13 20:12:21;;;;;;;4.27;3.97;;;5.60;43.10;;;;;;10365477;28;20241;-72
2021/01/13 20:17:24;;;;;;;5.07;4.57;;;5.70;43.30;;;;;;10376239;28;20232;-72
2021/01/13 20:22:27;;;;;;;5.43;4.93;;;5.70;43.30;;;;;;10372996;28;20241;-73
2021/01/13 20:27:29;;;;;;;5.17;4.40;;;5.70;43.30;;;;;;10372071;28;20890;-73
2021/01/13 20:32:31;;;;;;;6.97;5.80;;;5.70;43.30;;;;;;10385209;28;20240;-72
2021/01/13 20:37:34;;;;;;;6.13;5.53;;;5.80;43.30;;;;;;10367451;28;20222;-72
2021/01/13 20:42:37;;;;;;;6.43;5.80;;;5.80;43.30;;;;;;10378476;28;20345;-73
2021/01/13 20:47:40;;;;;;;6.70;5.83;;;5.80;43.40;;;;;;10363178;28;20226;-69
2021/01/13 20:52:46;;;;;;;5.97;5.27;;;5.80;43.40;;;;;;10350755;28;20252;-70
2021/01/13 20:57:49;;;;;;;5.83;5.30;;;5.80;43.40;;;;;;10352916;28;20249;-70
2021/01/13 21:02:53;;;;;;;5.53;5.03;;;5.80;43.40;;;;;;10354701;28;20233;-70
2021/01/13 21:07:58;;;;;;;4.77;4.30;;;5.80;43.40;;;;;;10350809;28;20315;-70
2021/01/13 21:13:01;;;;;;;4.70;4.30;;;5.80;43.40;;;;;;10355722;28;20234;-70
2021/01/13 21:18:04;;;;;;;5.27;3.77;;;5.80;43.40;;;;;;10350265;28;20317;-70
2021/01/13 21:23:07;;;;;;;4.23;3.90;;;5.90;43.70;;;;;;10350712;28;20239;-70
2021/01/13 21:28:09;;;;;;;4.43;3.83;;;5.90;44.00;;;;;;10347079;28;20794;-70
2021/01/13 21:33:12;;;;;;;3.90;3.60;;;5.90;44.00;;;;;;10350154;28;20230;-70
2021/01/13 21:38:15;;;;;;;3.23;2.93;;;5.90;44.20;;;;;;10351366;28;20230;-70
2021/01/13 21:43:17;;;;;;;3.60;3.30;;;5.90;44.30;;;;;;10342461;28;20788;-70
2021/01/13 21:48:20;;;;;;;3.20;3.00;;;5.90;44.20;;;;;;10346010;28;20288;-70
2021/01/13 21:53:23;;;;;;;3.50;3.20;;;5.90;44.30;;;;;;10345660;28;20735;-70
2021/01/13 21:58:26;;;;;;;4.13;3.73;;;5.90;44.50;;;;;;10351962;28;20234;-70
2021/01/13 22:03:28;;;;;;;3.77;3.47;;;5.90;44.40;;;;;;10347659;28;20237;-70
2021/01/13 22:08:31;;;;;;;4.00;3.70;;;5.90;44.20;;;;;;10345921;28;20321;-70
2021/01/13 22:13:33;;;;;;;4.27;3.97;;;5.90;44.50;;;;;;10345735;28;20726;-70
2021/01/13 22:18:35;;;;;;;4.70;4.30;;;5.80;44.20;;;;;;10351001;28;20238;-70
2021/01/13 22:23:38;;;;;;;4.87;4.43;;;5.80;44.30;;;;;;10342559;28;20226;-70
2021/01/13 22:28:41;;;;;;;4.50;4.10;;;5.70;44.50;;;;;;10345042;28;20263;-70
2021/01/13 22:33:44;;;;;;;5.03;4.63;;;5.70;44.40;;;;;;10347436;28;20222;-70
2021/01/13 22:38:48;;;;;;;5.03;4.50;;;5.70;44.50;;;;;;10355888;28;20867;-70
2021/01/13 22:43:51;;;;;;;4.67;4.30;;;5.70;44.70;;;;;;10352435;28;20230;-70
2021/01/13 22:48:53;;;;;;;5.50;5.10;;;5.70;44.60;;;;;;10348293;28;20730;-70
2021/01/13 22:53:56;;;;;;;5.27;4.87;;;5.60;44.60;;;;;;10346598;28;20242;-69
2021/01/13 22:58:58;;;;;;;5.33;4.87;;;5.60;44.80;;;;;;10336199;28;20228;-69
2021/01/13 23:04:01;;;;;;;5.30;4.90;;;5.60;44.70;;;;;;10302671;28;20334;-71
2021/01/13 23:09:06;;;;;;;5.20;4.80;;;5.60;44.80;;;;;;10306147;28;20703;-70
2021/01/13 23:14:09;;;;;;;6.07;5.57;;;5.60;44.90;;;;;;10307853;28;20234;-70
2021/01/13 23:19:11;;;;;;;5.73;5.33;;;5.60;44.70;;;;;;10316129;28;20231;-70
2021/01/13 23:24:14;;;;;;;5.43;5.03;;;5.70;44.90;;;;;;10305478;28;20342;-69
2021/01/13 23:29:17;;;;;;;5.63;5.13;;;5.60;44.80;;;;;;10310191;28;20594;-70
2021/01/13 23:34:19;;;;;;;6.27;5.77;;;5.60;44.90;;;;;;10312696;28;20231;-70
2021/01/13 23:39:22;;;;;;;6.07;5.57;;;5.60;45.00;;;;;;10309916;28;20353;-70
2021/01/13 23:44:24;;;;;;;6.07;5.57;;;5.60;45.20;;;;;;10305118;28;20231;-70
2021/01/13 23:49:26;;;;;;;6.30;5.80;;;5.60;45.10;;;;;;10336987;28;20312;-70
2021/01/13 23:54:29;;;;;;;6.73;6.13;;;5.60;45.20;;;;;;10353303;28;20313;-70
2021/01/13 23:59:32;;;;;;;6.67;6.07;;;5.60;45.20;;;;;;10344570;28;20229;-70
